sensor_id;sensor_type;location;lat;lon;timestamp;P1;durP1;ratioP1;P2;durP2;ratioP2
28802;SDS011;15949;55.656;37.422;2022-09-28T00:01:18;5.00;;;3.88;;
28802;SDS011;15949;55.656;37.422;2022-09-28T00:06:25;5.57;;;4.63;;
28802;SDS011;15949;55.656;37.422;2022-09-28T00:11:34;10.65;;;4.45;;
28802;SDS011;15949;55.656;37.422;2022-09-28T00:16:42;6.25;;;4.43;;
28802;SDS011;15949;55.656;37.422;2022-09-28T00:21:48;6.07;;;4.32;;
28802;SDS011;15949;55.656;37.422;2022-09-28T00:26:54;7.38;;;4.82;;
28802;SDS011;15949;55.656;37.422;2022-09-28T00:32:02;8.02;;;4.68;;
28802;SDS011;15949;55.656;37.422;2022-09-28T00:37:10;8.47;;;4.60;;
28802;SDS011;15949;55.656;37.422;2022-09-28T00:42:18;6.38;;;4.60;;
28802;SDS011;15949;55.656;37.422;2022-09-28T00:47:30;5.75;;;4.30;;
28802;SDS011;15949;55.656;37.422;2022-09-28T00:58:20;5.28;;;4.70;;
28802;SDS011;15949;55.656;37.422;2022-09-28T01:03:33;6.95;;;4.78;;
28802;SDS011;15949;55.656;37.422;2022-09-28T01:08:39;9.25;;;6.20;;
28802;SDS011;15949;55.656;37.422;2022-09-28T01:13:48;8.73;;;4.70;;
28802;SDS011;15949;55.656;37.422;2022-09-28T01:40:54;7.28;;;4.40;;
28802;SDS011;15949;55.656;37.422;2022-09-28T01:46:05;6.80;;;4.85;;
28802;SDS011;15949;55.656;37.422;2022-09-28T01:56:57;6.50;;;4.47;;
28802;SDS011;15949;55.656;37.422;2022-09-28T02:02:13;5.28;;;4.40;;
28802;SDS011;15949;55.656;37.422;2022-09-28T02:07:39;4.60;;;3.80;;
28802;SDS011;15949;55.656;37.422;2022-09-28T02:13:28;5.85;;;3.78;;
28802;SDS011;15949;55.656;37.422;2022-09-28T02:18:35;4.93;;;3.65;;
28802;SDS011;15949;55.656;37.422;2022-09-28T02:23:43;4.05;;;3.53;;
28802;SDS011;15949;55.656;37.422;2022-09-28T02:28:56;4.78;;;3.92;;
28802;SDS011;15949;55.656;37.422;2022-09-28T02:34:02;4.55;;;3.50;;
28802;SDS011;15949;55.656;37.422;2022-09-28T02:39:12;5.03;;;3.60;;
28802;SDS011;15949;55.656;37.422;2022-09-28T02:44:33;6.47;;;3.60;;
28802;SDS011;15949;55.656;37.422;2022-09-28T02:55:03;3.83;;;3.42;;
28802;SDS011;15949;55.656;37.422;2022-09-28T03:00:24;6.35;;;3.45;;
28802;SDS011;15949;55.656;37.422;2022-09-28T03:05:36;7.20;;;3.92;;
28802;SDS011;15949;55.656;37.422;2022-09-28T03:10:50;3.72;;;3.35;;
28802;SDS011;15949;55.656;37.422;2022-09-28T03:16:11;4.30;;;3.85;;
28802;SDS011;15949;55.656;37.422;2022-09-28T03:21:18;5.80;;;3.55;;
28802;SDS011;15949;55.656;37.422;2022-09-28T03:26:24;6.80;;;4.13;;
28802;SDS011;15949;55.656;37.422;2022-09-28T03:31:29;5.22;;;4.00;;
28802;SDS011;15949;55.656;37.422;2022-09-28T03:36:35;4.97;;;4.00;;
28802;SDS011;15949;55.656;37.422;2022-09-28T03:41:41;6.20;;;4.40;;
28802;SDS011;15949;55.656;37.422;2022-09-28T03:46:46;6.40;;;4.38;;
28802;SDS011;15949;55.656;37.422;2022-09-28T03:51:52;6.30;;;4.28;;
28802;SDS011;15949;55.656;37.422;2022-09-28T03:56:57;7.68;;;4.68;;
28802;SDS011;15949;55.656;37.422;2022-09-28T04:02:03;5.07;;;4.45;;
28802;SDS011;15949;55.656;37.422;2022-09-28T04:07:09;7.20;;;4.70;;
28802;SDS011;15949;55.656;37.422;2022-09-28T04:12:15;4.63;;;4.07;;
28802;SDS011;15949;55.656;37.422;2022-09-28T04:17:20;5.45;;;4.53;;
28802;SDS011;15949;55.656;37.422;2022-09-28T04:22:26;7.45;;;5.15;;
28802;SDS011;15949;55.656;37.422;2022-09-28T04:27:32;5.13;;;4.38;;
28802;SDS011;15949;55.656;37.422;2022-09-28T04:32:56;5.85;;;4.93;;
28802;SDS011;15949;55.656;37.422;2022-09-28T04:38:02;5.97;;;4.68;;
28802;SDS011;15949;55.656;37.422;2022-09-28T04:43:07;6.75;;;5.07;;
28802;SDS011;15949;55.656;37.422;2022-09-28T04:48:13;7.60;;;5.22;;
28802;SDS011;15949;55.656;37.422;2022-09-28T04:53:19;7.18;;;5.88;;
28802;SDS011;15949;55.656;37.422;2022-09-28T04:58:24;7.10;;;5.72;;
28802;SDS011;15949;55.656;37.422;2022-09-28T05:03:31;6.10;;;5.03;;
28802;SDS011;15949;55.656;37.422;2022-09-28T05:08:37;10.27;;;5.95;;
28802;SDS011;15949;55.656;37.422;2022-09-28T05:13:43;7.22;;;5.40;;
28802;SDS011;15949;55.656;37.422;2022-09-28T05:18:53;7.70;;;5.68;;
28802;SDS011;15949;55.656;37.422;2022-09-28T05:23:59;9.55;;;6.25;;
28802;SDS011;15949;55.656;37.422;2022-09-28T05:29:05;10.52;;;9.05;;
28802;SDS011;15949;55.656;37.422;2022-09-28T05:34:10;9.98;;;7.35;;
28802;SDS011;15949;55.656;37.422;2022-09-28T05:39:16;8.48;;;5.70;;
28802;SDS011;15949;55.656;37.422;2022-09-28T05:44:22;10.15;;;5.80;;
28802;SDS011;15949;55.656;37.422;2022-09-28T05:49:27;8.52;;;6.35;;
28802;SDS011;15949;55.656;37.422;2022-09-28T05:54:35;6.82;;;5.47;;
28802;SDS011;15949;55.656;37.422;2022-09-28T05:59:41;10.43;;;6.57;;
28802;SDS011;15949;55.656;37.422;2022-09-28T06:04:47;9.48;;;7.57;;
28802;SDS011;15949;55.656;37.422;2022-09-28T06:09:53;8.98;;;7.43;;
28802;SDS011;15949;55.656;37.422;2022-09-28T06:14:59;15.57;;;11.63;;
28802;SDS011;15949;55.656;37.422;2022-09-28T06:20:05;15.13;;;10.75;;
28802;SDS011;15949;55.656;37.422;2022-09-28T06:25:11;12.27;;;9.90;;
28802;SDS011;15949;55.656;37.422;2022-09-28T06:30:16;12.95;;;8.98;;
28802;SDS011;15949;55.656;37.422;2022-09-28T06:35:23;13.07;;;8.75;;
28802;SDS011;15949;55.656;37.422;2022-09-28T06:40:30;14.25;;;9.10;;
28802;SDS011;15949;55.656;37.422;2022-09-28T06:45:37;14.75;;;8.60;;
28802;SDS011;15949;55.656;37.422;2022-09-28T06:50:42;11.05;;;7.82;;
28802;SDS011;15949;55.656;37.422;2022-09-28T06:55:49;10.52;;;7.50;;
28802;SDS011;15949;55.656;37.422;2022-09-28T07:00:55;11.15;;;7.97;;
28802;SDS011;15949;55.656;37.422;2022-09-28T07:06:04;14.50;;;8.25;;
28802;SDS011;15949;55.656;37.422;2022-09-28T07:11:09;11.77;;;7.93;;
28802;SDS011;15949;55.656;37.422;2022-09-28T07:16:16;8.82;;;7.05;;
28802;SDS011;15949;55.656;37.422;2022-09-28T07:21:22;10.93;;;7.47;;
28802;SDS011;15949;55.656;37.422;2022-09-28T07:26:27;8.18;;;6.10;;
28802;SDS011;15949;55.656;37.422;2022-09-28T07:31:33;12.40;;;7.20;;
28802;SDS011;15949;55.656;37.422;2022-09-28T07:36:39;13.77;;;7.07;;
28802;SDS011;15949;55.656;37.422;2022-09-28T07:41:44;8.30;;;6.75;;
28802;SDS011;15949;55.656;37.422;2022-09-28T07:46:50;7.97;;;5.80;;
28802;SDS011;15949;55.656;37.422;2022-09-28T07:51:55;9.50;;;6.25;;
28802;SDS011;15949;55.656;37.422;2022-09-28T07:57:01;8.18;;;5.97;;
28802;SDS011;15949;55.656;37.422;2022-09-28T08:02:07;8.55;;;6.00;;
28802;SDS011;15949;55.656;37.422;2022-09-28T08:07:14;12.60;;;9.65;;
28802;SDS011;15949;55.656;37.422;2022-09-28T08:12:21;15.07;;;13.35;;
28802;SDS011;15949;55.656;37.422;2022-09-28T08:17:26;10.27;;;8.30;;
28802;SDS011;15949;55.656;37.422;2022-09-28T08:22:32;11.65;;;10.35;;
28802;SDS011;15949;55.656;37.422;2022-09-28T08:27:38;11.15;;;7.07;;
28802;SDS011;15949;55.656;37.422;2022-09-28T08:32:46;9.00;;;6.93;;
28802;SDS011;15949;55.656;37.422;2022-09-28T08:37:55;10.25;;;7.63;;
28802;SDS011;15949;55.656;37.422;2022-09-28T08:43:01;11.93;;;7.03;;
28802;SDS011;15949;55.656;37.422;2022-09-28T08:48:23;11.88;;;7.72;;
28802;SDS011;15949;55.656;37.422;2022-09-28T08:59:27;10.75;;;6.90;;
28802;SDS011;15949;55.656;37.422;2022-09-28T09:04:39;12.55;;;7.20;;
28802;SDS011;15949;55.656;37.422;2022-09-28T09:20:27;11.57;;;6.93;;
28802;SDS011;15949;55.656;37.422;2022-09-28T09:25:54;9.13;;;6.53;;
28802;SDS011;15949;55.656;37.422;2022-09-28T09:36:57;6.63;;;5.38;;
28802;SDS011;15949;55.656;37.422;2022-09-28T09:42:09;6.95;;;5.05;;
28802;SDS011;15949;55.656;37.422;2022-09-28T09:47:20;6.30;;;5.35;;
28802;SDS011;15949;55.656;37.422;2022-09-28T09:52:50;7.97;;;5.30;;
28802;SDS011;15949;55.656;37.422;2022-09-28T10:03:18;6.95;;;4.72;;
28802;SDS011;15949;55.656;37.422;2022-09-28T10:08:36;6.63;;;4.75;;
28802;SDS011;15949;55.656;37.422;2022-09-28T10:13:46;7.63;;;5.28;;
28802;SDS011;15949;55.656;37.422;2022-09-28T10:18:53;6.45;;;4.82;;
28802;SDS011;15949;55.656;37.422;2022-09-28T10:23:59;5.47;;;4.68;;
28802;SDS011;15949;55.656;37.422;2022-09-28T10:29:11;5.80;;;4.83;;
28802;SDS011;15949;55.656;37.422;2022-09-28T10:34:27;7.20;;;4.97;;
28802;SDS011;15949;55.656;37.422;2022-09-28T10:39:48;5.38;;;4.50;;
28802;SDS011;15949;55.656;37.422;2022-09-28T10:45:14;5.32;;;3.78;;
28802;SDS011;15949;55.656;37.422;2022-09-28T10:50:25;6.47;;;3.60;;
28802;SDS011;15949;55.656;37.422;2022-09-28T10:55:32;4.05;;;3.28;;
28802;SDS011;15949;55.656;37.422;2022-09-28T11:00:41;6.03;;;3.80;;
28802;SDS011;15949;55.656;37.422;2022-09-28T11:05:56;7.78;;;3.70;;
28802;SDS011;15949;55.656;37.422;2022-09-28T11:11:11;8.38;;;4.13;;
28802;SDS011;15949;55.656;37.422;2022-09-28T11:16:19;5.15;;;3.60;;
28802;SDS011;15949;55.656;37.422;2022-09-28T11:21:28;5.18;;;3.40;;
28802;SDS011;15949;55.656;37.422;2022-09-28T11:26:45;4.68;;;3.38;;
28802;SDS011;15949;55.656;37.422;2022-09-28T11:31:52;6.38;;;3.20;;
28802;SDS011;15949;55.656;37.422;2022-09-28T11:37:17;5.47;;;3.15;;
28802;SDS011;15949;55.656;37.422;2022-09-28T11:48:04;7.68;;;2.88;;
28802;SDS011;15949;55.656;37.422;2022-09-28T11:53:26;6.47;;;3.10;;
28802;SDS011;15949;55.656;37.422;2022-09-28T12:03:46;3.78;;;2.85;;
28802;SDS011;15949;55.656;37.422;2022-09-28T12:08:59;6.75;;;3.45;;
28802;SDS011;15949;55.656;37.422;2022-09-28T12:14:17;5.15;;;3.50;;
28802;SDS011;15949;55.656;37.422;2022-09-28T12:25:08;8.10;;;3.55;;
28802;SDS011;15949;55.656;37.422;2022-09-28T12:30:20;5.50;;;3.13;;
28802;SDS011;15949;55.656;37.422;2022-09-28T12:35:45;5.30;;;3.13;;
28802;SDS011;15949;55.656;37.422;2022-09-28T12:52:15;6.40;;;2.70;;
28802;SDS011;15949;55.656;37.422;2022-09-28T13:08:10;4.50;;;2.70;;
28802;SDS011;15949;55.656;37.422;2022-09-28T13:24:46;4.60;;;2.90;;
28802;SDS011;15949;55.656;37.422;2022-09-28T13:29:53;5.80;;;3.00;;
28802;SDS011;15949;55.656;37.422;2022-09-28T13:35:02;6.93;;;3.22;;
28802;SDS011;15949;55.656;37.422;2022-09-28T13:40:08;8.02;;;2.92;;
28802;SDS011;15949;55.656;37.422;2022-09-28T14:01:52;7.85;;;3.63;;
28802;SDS011;15949;55.656;37.422;2022-09-28T14:07:54;6.18;;;3.80;;
28802;SDS011;15949;55.656;37.422;2022-09-28T14:12:51;5.85;;;4.05;;
28802;SDS011;15949;55.656;37.422;2022-09-28T14:34:22;6.18;;;4.32;;
28802;SDS011;15949;55.656;37.422;2022-09-28T14:39:31;6.80;;;4.05;;
28802;SDS011;15949;55.656;37.422;2022-09-28T14:50:23;7.78;;;4.80;;
28802;SDS011;15949;55.656;37.422;2022-09-28T14:55:33;7.07;;;4.57;;
28802;SDS011;15949;55.656;37.422;2022-09-28T15:00:48;8.02;;;5.25;;
28802;SDS011;15949;55.656;37.422;2022-09-28T15:05:57;10.95;;;5.10;;
28802;SDS011;15949;55.656;37.422;2022-09-28T15:11:03;8.05;;;6.10;;
28802;SDS011;15949;55.656;37.422;2022-09-28T15:16:14;8.32;;;5.57;;
28802;SDS011;15949;55.656;37.422;2022-09-28T15:21:22;8.57;;;5.75;;
28802;SDS011;15949;55.656;37.422;2022-09-28T15:26:29;6.85;;;5.38;;
28802;SDS011;15949;55.656;37.422;2022-09-28T15:31:37;7.23;;;4.77;;
28802;SDS011;15949;55.656;37.422;2022-09-28T15:36:42;6.43;;;5.10;;
28802;SDS011;15949;55.656;37.422;2022-09-28T15:41:52;8.93;;;5.47;;
28802;SDS011;15949;55.656;37.422;2022-09-28T15:47:14;10.68;;;5.57;;
28802;SDS011;15949;55.656;37.422;2022-09-28T15:58:17;10.00;;;6.38;;
28802;SDS011;15949;55.656;37.422;2022-09-28T16:03:27;12.07;;;5.65;;
28802;SDS011;15949;55.656;37.422;2022-09-28T16:08:40;11.47;;;6.47;;
28802;SDS011;15949;55.656;37.422;2022-09-28T16:18:52;13.13;;;6.63;;
28802;SDS011;15949;55.656;37.422;2022-09-28T16:23:59;15.80;;;6.90;;
28802;SDS011;15949;55.656;37.422;2022-09-28T16:29:22;13.32;;;7.72;;
28802;SDS011;15949;55.656;37.422;2022-09-28T16:34:30;14.63;;;6.95;;
28802;SDS011;15949;55.656;37.422;2022-09-28T16:39:35;16.00;;;7.43;;
28802;SDS011;15949;55.656;37.422;2022-09-28T16:44:42;14.57;;;7.32;;
28802;SDS011;15949;55.656;37.422;2022-09-28T16:49:48;13.10;;;7.60;;
28802;SDS011;15949;55.656;37.422;2022-09-28T16:54:53;11.18;;;7.38;;
28802;SDS011;15949;55.656;37.422;2022-09-28T17:00:18;12.63;;;6.60;;
28802;SDS011;15949;55.656;37.422;2022-09-28T17:05:28;16.50;;;7.97;;
28802;SDS011;15949;55.656;37.422;2022-09-28T17:10:39;45.80;;;30.40;;
28802;SDS011;15949;55.656;37.422;2022-09-28T17:15:49;14.40;;;8.95;;
28802;SDS011;15949;55.656;37.422;2022-09-28T17:20:55;15.32;;;9.07;;
28802;SDS011;15949;55.656;37.422;2022-09-28T17:26:03;22.90;;;15.30;;
28802;SDS011;15949;55.656;37.422;2022-09-28T17:31:15;19.08;;;10.95;;
28802;SDS011;15949;55.656;37.422;2022-09-28T17:36:21;13.80;;;8.43;;
28802;SDS011;15949;55.656;37.422;2022-09-28T17:41:27;9.05;;;6.70;;
28802;SDS011;15949;55.656;37.422;2022-09-28T17:46:33;12.75;;;8.00;;
28802;SDS011;15949;55.656;37.422;2022-09-28T17:51:41;12.35;;;7.70;;
28802;SDS011;15949;55.656;37.422;2022-09-28T17:56:46;11.23;;;7.93;;
28802;SDS011;15949;55.656;37.422;2022-09-28T18:01:52;21.70;;;14.93;;
28802;SDS011;15949;55.656;37.422;2022-09-28T18:06:57;16.83;;;10.73;;
28802;SDS011;15949;55.656;37.422;2022-09-28T18:12:03;8.65;;;6.10;;
28802;SDS011;15949;55.656;37.422;2022-09-28T18:17:09;6.88;;;5.93;;
28802;SDS011;15949;55.656;37.422;2022-09-28T18:22:15;9.07;;;6.07;;
28802;SDS011;15949;55.656;37.422;2022-09-28T18:27:20;9.98;;;6.20;;
28802;SDS011;15949;55.656;37.422;2022-09-28T18:32:26;9.45;;;6.68;;
28802;SDS011;15949;55.656;37.422;2022-09-28T18:37:36;12.73;;;7.07;;
28802;SDS011;15949;55.656;37.422;2022-09-28T18:42:43;11.43;;;7.65;;
28802;SDS011;15949;55.656;37.422;2022-09-28T18:47:49;9.68;;;7.45;;
28802;SDS011;15949;55.656;37.422;2022-09-28T18:52:55;8.38;;;7.30;;
28802;SDS011;15949;55.656;37.422;2022-09-28T18:58:15;7.95;;;6.57;;
28802;SDS011;15949;55.656;37.422;2022-09-28T19:03:20;6.80;;;6.10;;
28802;SDS011;15949;55.656;37.422;2022-09-28T19:08:27;8.48;;;6.47;;
28802;SDS011;15949;55.656;37.422;2022-09-28T19:13:32;8.82;;;6.45;;
28802;SDS011;15949;55.656;37.422;2022-09-28T19:18:38;8.43;;;6.53;;
28802;SDS011;15949;55.656;37.422;2022-09-28T19:23:44;11.15;;;6.68;;
28802;SDS011;15949;55.656;37.422;2022-09-28T19:28:50;11.38;;;6.28;;
28802;SDS011;15949;55.656;37.422;2022-09-28T19:33:57;8.25;;;7.18;;
28802;SDS011;15949;55.656;37.422;2022-09-28T19:39:02;8.25;;;6.65;;
28802;SDS011;15949;55.656;37.422;2022-09-28T19:44:13;9.75;;;7.32;;
28802;SDS011;15949;55.656;37.422;2022-09-28T19:49:25;11.38;;;7.05;;
28802;SDS011;15949;55.656;37.422;2022-09-28T19:54:32;12.43;;;7.90;;
28802;SDS011;15949;55.656;37.422;2022-09-28T19:59:38;10.75;;;7.95;;
28802;SDS011;15949;55.656;37.422;2022-09-28T20:04:44;12.32;;;8.18;;
28802;SDS011;15949;55.656;37.422;2022-09-28T20:09:49;10.55;;;7.85;;
28802;SDS011;15949;55.656;37.422;2022-09-28T20:14:55;9.75;;;8.02;;
28802;SDS011;15949;55.656;37.422;2022-09-28T20:20:01;13.50;;;7.88;;
28802;SDS011;15949;55.656;37.422;2022-09-28T20:25:07;13.65;;;8.88;;
28802;SDS011;15949;55.656;37.422;2022-09-28T20:30:14;14.63;;;8.45;;
28802;SDS011;15949;55.656;37.422;2022-09-28T20:35:19;9.43;;;7.40;;
28802;SDS011;15949;55.656;37.422;2022-09-28T20:40:25;13.23;;;8.13;;
28802;SDS011;15949;55.656;37.422;2022-09-28T20:45:33;10.18;;;7.32;;
28802;SDS011;15949;55.656;37.422;2022-09-28T20:50:41;11.93;;;8.40;;
28802;SDS011;15949;55.656;37.422;2022-09-28T20:55:46;10.30;;;7.80;;
28802;SDS011;15949;55.656;37.422;2022-09-28T21:00:57;12.63;;;7.85;;
28802;SDS011;15949;55.656;37.422;2022-09-28T21:06:06;13.05;;;8.07;;
28802;SDS011;15949;55.656;37.422;2022-09-28T21:11:12;12.43;;;9.00;;
28802;SDS011;15949;55.656;37.422;2022-09-28T21:16:18;11.48;;;9.13;;
28802;SDS011;15949;55.656;37.422;2022-09-28T21:21:24;13.45;;;10.38;;
28802;SDS011;15949;55.656;37.422;2022-09-28T21:26:30;11.88;;;10.25;;
28802;SDS011;15949;55.656;37.422;2022-09-28T21:31:38;12.63;;;10.40;;
28802;SDS011;15949;55.656;37.422;2022-09-28T21:36:46;10.77;;;9.68;;
28802;SDS011;15949;55.656;37.422;2022-09-28T21:47:00;14.02;;;12.13;;
28802;SDS011;15949;55.656;37.422;2022-09-28T21:52:06;17.67;;;12.95;;
28802;SDS011;15949;55.656;37.422;2022-09-28T21:57:11;14.75;;;13.02;;
28802;SDS011;15949;55.656;37.422;2022-09-28T22:02:17;16.20;;;11.82;;
28802;SDS011;15949;55.656;37.422;2022-09-28T22:07:22;17.88;;;12.35;;
28802;SDS011;15949;55.656;37.422;2022-09-28T22:12:28;14.43;;;12.93;;
28802;SDS011;15949;55.656;37.422;2022-09-28T22:17:34;16.75;;;12.80;;
28802;SDS011;15949;55.656;37.422;2022-09-28T22:22:39;15.70;;;11.07;;
28802;SDS011;15949;55.656;37.422;2022-09-28T22:27:45;12.68;;;9.77;;
28802;SDS011;15949;55.656;37.422;2022-09-28T22:32:50;11.43;;;9.93;;
28802;SDS011;15949;55.656;37.422;2022-09-28T22:37:58;11.20;;;9.48;;
28802;SDS011;15949;55.656;37.422;2022-09-28T22:43:04;14.68;;;10.05;;
28802;SDS011;15949;55.656;37.422;2022-09-28T22:48:09;11.43;;;9.40;;
28802;SDS011;15949;55.656;37.422;2022-09-28T22:53:15;12.20;;;8.93;;
28802;SDS011;15949;55.656;37.422;2022-09-28T22:58:21;12.88;;;9.00;;
28802;SDS011;15949;55.656;37.422;2022-09-28T23:03:27;10.13;;;8.82;;
28802;SDS011;15949;55.656;37.422;2022-09-28T23:08:33;10.93;;;8.68;;
28802;SDS011;15949;55.656;37.422;2022-09-28T23:13:39;10.07;;;8.98;;
28802;SDS011;15949;55.656;37.422;2022-09-28T23:18:45;12.00;;;9.93;;
28802;SDS011;15949;55.656;37.422;2022-09-28T23:23:54;13.05;;;10.35;;
28802;SDS011;15949;55.656;37.422;2022-09-28T23:29:01;13.77;;;10.50;;
28802;SDS011;15949;55.656;37.422;2022-09-28T23:34:08;13.57;;;10.30;;
28802;SDS011;15949;55.656;37.422;2022-09-28T23:39:14;12.15;;;9.40;;
28802;SDS011;15949;55.656;37.422;2022-09-28T23:44:19;9.57;;;8.57;;
28802;SDS011;15949;55.656;37.422;2022-09-28T23:49:25;11.93;;;8.60;;
28802;SDS011;15949;55.656;37.422;2022-09-28T23:54:31;10.07;;;8.80;;
28802;SDS011;15949;55.656;37.422;2022-09-28T23:59:36;9.07;;;7.75;;
